»·PEaware :: N806ER KBFL-KMHV

N806ER :: KBFL-KMHV

FLIGHT INFORMATION

Flight Status: Arrived
Operator: Privately registered:
United States
More flights under this callsign
Pilot: Jamil M. (37589)
Aircraft: Diamond DA-40
(DA40)
More flights by this aircraft type
Origin: KBFL Meadows
United States
Destination: KMHV Mojave
United States
More flights between these airports :: More routes between these airports
Route:
File this flight plan on PilotEdge
Remarks:
Altitude:
(Current/Filed)
9,500ft
Speed:
(Current/Filed)
136kts
Departed: 03-Jan-22 08:09 PM
Arrived: 03-Jan-22 08:41 PM
Distance/Time
Traveled:
49nm/0:32
Distance/Time
To Go:
Arrived

Flight Plot

Page will automatically refresh every two minutes.


Map Options




Map Legend


Flown Route
Filed Route
Departure Airport
Arrival Airport
Navaid (VOR, NDB)
Fix

Horizontal Profiles

Position Reports

Time Latitude Longitude Heading Altitude Ground
Speed
03-Jan-22 19:52 35.432211 -119.050336 226 485ft 0kts
03-Jan-22 19:53 35.432211 -119.050336 226 485ft 0kts
03-Jan-22 19:54 35.432211 -119.050336 226 485ft 0kts
03-Jan-22 19:55 35.432211 -119.050336 226 485ft 0kts
03-Jan-22 19:56 35.432211 -119.050336 226 485ft 0kts
03-Jan-22 19:57 35.432211 -119.050336 226 485ft 0kts
03-Jan-22 19:58 35.432211 -119.050336 226 485ft 0kts
03-Jan-22 19:59 35.431997 -119.051678 137 482ft 17kts
03-Jan-22 20:00 35.426341 -119.044866 137 472ft 14kts
03-Jan-22 20:01 35.426230 -119.044733 133 472ft 3kts
03-Jan-22 20:02 35.426097 -119.044615 161 472ft 0kts
03-Jan-22 20:03 35.425826 -119.044665 227 471ft 5kts
03-Jan-22 20:04 35.425799 -119.044701 227 471ft 0kts
03-Jan-22 20:05 35.425799 -119.044701 227 471ft 0kts
03-Jan-22 20:06 35.425799 -119.044701 227 471ft 0kts
03-Jan-22 20:07 35.425799 -119.044701 227 471ft 0kts
03-Jan-22 20:08 35.430798 -119.052520 315 579ft 82kts
03-Jan-22 20:09 35.444613 -119.074013 237 1353ft 101kts
03-Jan-22 20:10 35.419432 -119.056440 145 2010ft 118kts
03-Jan-22 20:11 35.399181 -119.029604 113 3068ft 105kts
03-Jan-22 20:12 35.386776 -118.995479 112 4057ft 106kts
03-Jan-22 20:13 35.375400 -118.957808 109 4720ft 123kts
03-Jan-22 20:14 35.368771 -118.916752 89 5423ft 124kts
03-Jan-22 20:15 35.362220 -118.875692 117 6123ft 125kts
03-Jan-22 20:16 35.345329 -118.838401 118 6884ft 123kts
03-Jan-22 20:17 35.329253 -118.801821 118 7785ft 121kts
03-Jan-22 20:18 35.313243 -118.765603 118 8689ft 121kts
03-Jan-22 20:19 35.296855 -118.728608 118 9426ft 134kts
03-Jan-22 20:20 35.277354 -118.684616 118 9494ft 153kts
03-Jan-22 20:21 35.256834 -118.638466 118 9499ft 155kts
03-Jan-22 20:22 35.236189 -118.592014 118 9501ft 155kts
03-Jan-22 20:23 35.217167 -118.549396 118 9502ft 130kts
03-Jan-22 20:24 35.200125 -118.511042 119 9505ft 126kts
03-Jan-22 20:25 35.183386 -118.473574 119 9502ft 125kts
03-Jan-22 20:26 35.166694 -118.436236 119 9500ft 125kts
03-Jan-22 20:27 35.148666 -118.395869 119 8979ft 142kts
03-Jan-22 20:28 35.129595 -118.353406 118 8376ft 143kts
03-Jan-22 20:29 35.110656 -118.311167 119 7772ft 134kts
03-Jan-22 20:30 35.096015 -118.273659 106 6771ft 123kts
03-Jan-22 20:31 35.092773 -118.234635 95 5811ft 108kts
03-Jan-22 20:32 35.086816 -118.194742 110 4402ft 121kts
03-Jan-22 20:33 35.066385 -118.165907 104 3411ft 118kts
03-Jan-22 20:34 35.063046 -118.132407 86 3255ft 95kts
03-Jan-22 20:35 35.058002 -118.137271 280 3069ft 118kts
03-Jan-22 20:36 35.065431 -118.171894 345 3768ft 109kts
03-Jan-22 20:37 35.069291 -118.139654 84 3685ft 112kts
03-Jan-22 20:38 35.059098 -118.122525 242 3326ft 84kts
03-Jan-22 20:39 35.059170 -118.149829 274 2752ft 60kts
03-Jan-22 20:40 35.057677 -118.158383 277 2769ft 17kts
03-Jan-22 20:41 35.057586 -118.159145 253 2770ft 0kts
03-Jan-22 20:42 35.057586 -118.159145 253 2770ft 0kts
03-Jan-22 20:43 35.057586 -118.159145 253 2770ft 0kts
03-Jan-22 20:44 35.057586 -118.159145 253 2770ft 0kts

Navigation Log

Ident Type
Flight plan parsing failed, navigation log unavailable